createdAt,value
2017-08-02T11:18:07.371Z,30.5
2017-08-02T11:26:18.855Z,29.3
2017-08-02T11:27:42.655Z,27.4
2017-08-02T11:28:45.887Z,27.3
2017-08-02T11:29:48.758Z,27.7
2017-08-02T11:30:51.713Z,28.5
2017-08-02T11:31:54.218Z,28.6
2017-08-02T11:32:56.668Z,28.4
2017-08-02T11:33:59.104Z,28.4
2017-08-02T11:35:01.715Z,28.5
2017-08-02T11:36:04.118Z,29.3
2017-08-02T11:37:06.626Z,29.7
2017-08-02T11:38:09.219Z,30.1
2017-08-02T11:39:11.823Z,29.3
2017-08-02T11:40:14.389Z,28.9
2017-08-02T11:41:16.987Z,28.9
2017-08-02T11:42:19.494Z,28.9
2017-08-02T11:43:21.946Z,28.5
2017-08-02T11:44:24.654Z,28.7
2017-08-02T11:45:27.625Z,28.7
2017-08-02T11:46:30.206Z,28.5
2017-08-02T11:47:33.015Z,27.6
2017-08-02T11:48:35.756Z,28.4
2017-08-02T11:49:38.403Z,28.9
2017-08-02T11:50:40.889Z,29.3
2017-08-02T11:51:43.331Z,29.6
2017-08-02T11:52:45.991Z,29.7
2017-08-02T11:53:48.529Z,29.1
2017-08-02T11:54:50.935Z,29
2017-08-02T11:55:53.562Z,29
2017-08-02T11:56:56.088Z,29.2
2017-08-02T11:57:58.623Z,29.3
2017-08-02T11:59:01.205Z,29.5
2017-08-02T12:00:03.699Z,28.8
2017-08-02T12:01:06.104Z,28.7
2017-08-02T12:02:08.669Z,28.3
2017-08-02T12:03:11.610Z,28.6
2017-08-02T12:04:14.124Z,28.8
2017-08-02T12:05:16.708Z,29.7
2017-08-02T12:06:19.443Z,29.3
2017-08-02T12:07:21.991Z,29.1
2017-08-02T12:08:24.514Z,29.5
2017-08-02T12:09:27.223Z,29.9
2017-08-02T12:10:29.687Z,30.2
2017-08-02T12:11:32.423Z,30.4
2017-08-02T12:12:35.039Z,29.7
2017-08-02T12:13:37.601Z,29.8
2017-08-02T12:14:40.154Z,30
2017-08-02T12:15:42.709Z,29.4
2017-08-02T12:16:45.335Z,29.4
2017-08-02T12:17:48.065Z,29.9
2017-08-02T12:18:50.561Z,30
2017-08-02T12:19:53.296Z,29.6
2017-08-02T12:20:55.813Z,29.3
2017-08-02T12:21:58.648Z,29.1
2017-08-02T12:23:01.209Z,29.5
2017-08-02T12:24:03.688Z,29.9
2017-08-02T12:25:06.199Z,30
2017-08-02T12:26:09.500Z,30
2017-08-02T12:27:12.684Z,30
2017-08-02T12:28:15.310Z,30
2017-08-02T12:29:18.000Z,30.4
2017-08-02T12:30:20.764Z,30.5
2017-08-02T12:31:23.387Z,30.4
2017-08-02T12:32:25.874Z,29.3
2017-08-02T12:33:28.389Z,29.9
2017-08-02T12:34:31.006Z,29.7
2017-08-02T12:35:33.619Z,28.9
2017-08-02T12:36:36.349Z,29
2017-08-02T12:37:39.396Z,29.3
2017-08-02T12:38:42.076Z,28.4
2017-08-02T12:39:44.528Z,28.6
2017-08-02T12:40:46.984Z,29
2017-08-02T12:41:49.455Z,29.5
2017-08-02T12:42:51.985Z,29.7
2017-08-02T12:43:54.566Z,29.5
2017-08-02T12:44:57.175Z,29
2017-08-02T12:45:59.715Z,28.7
2017-08-02T12:47:02.419Z,28.8
2017-08-02T12:48:04.894Z,28.7
2017-08-02T12:49:08.211Z,28.7
2017-08-02T12:50:10.691Z,28.7
2017-08-02T12:51:13.288Z,28.9
2017-08-02T12:52:15.910Z,28.8
2017-08-02T12:53:18.424Z,28.5
2017-08-02T12:54:20.903Z,28.3
2017-08-02T12:55:23.471Z,28.4
2017-08-02T12:56:26.232Z,28.3
2017-08-02T12:57:28.830Z,28.5
2017-08-02T12:58:31.433Z,28.3
2017-08-02T12:59:34.054Z,28.2
2017-08-02T13:00:36.564Z,28.5
2017-08-02T13:01:39.266Z,27.8
2017-08-02T13:02:42.158Z,27.6
2017-08-02T13:03:44.784Z,27.7
2017-08-02T13:04:47.561Z,27.4
2017-08-02T13:05:50.681Z,27.4
2017-08-02T13:06:53.738Z,27.2
2017-08-02T13:07:56.477Z,27.6
2017-08-02T13:08:58.962Z,28
2017-08-02T13:10:01.518Z,28.1
2017-08-02T13:11:04.667Z,28.2
2017-08-02T13:12:07.173Z,28.3
2017-08-02T13:13:09.894Z,28.3
2017-08-02T13:14:12.563Z,28
2017-08-02T13:15:15.221Z,27.5
2017-08-02T13:16:17.712Z,27.5
2017-08-02T13:17:20.265Z,27.9
2017-08-02T13:18:23.490Z,28.4
2017-08-02T13:19:26.407Z,28.7
2017-08-02T13:20:28.875Z,28.4
2017-08-02T13:21:31.450Z,28.2
2017-08-02T13:22:34.182Z,27.9
2017-08-02T13:23:36.793Z,27.9
2017-08-02T13:24:39.403Z,27.6
2017-08-02T13:25:41.926Z,28.1
2017-08-02T13:26:44.543Z,28
2017-08-02T13:27:46.992Z,28.2
2017-08-02T13:28:49.448Z,28.4
2017-08-02T13:29:51.961Z,28
2017-08-02T13:30:54.596Z,28.5
2017-08-02T13:31:57.122Z,28
2017-08-02T13:32:59.681Z,28
2017-08-02T13:34:02.300Z,27.4
2017-08-02T13:35:04.871Z,28
2017-08-02T13:36:08.293Z,27.5
2017-08-02T13:37:10.746Z,27.4
2017-08-02T13:38:13.376Z,27.7
2017-08-02T13:39:15.988Z,28.1
2017-08-02T13:40:18.586Z,28.3
2017-08-02T13:41:21.097Z,27.9
2017-08-02T13:42:23.717Z,28.4
2017-08-02T13:43:26.408Z,27.5
2017-08-02T13:44:29.076Z,27.5
2017-08-02T13:45:31.541Z,27.3
2017-08-02T13:46:34.120Z,27.5
2017-08-02T13:47:36.723Z,27.8
2017-08-02T13:48:39.185Z,27.2
2017-08-02T13:49:41.742Z,27.8
2017-08-02T13:50:44.332Z,27.8
2017-08-02T13:51:46.868Z,27.2
2017-08-02T13:52:49.498Z,27.4
2017-08-02T13:53:51.982Z,27.4
2017-08-02T13:54:54.583Z,27.4
2017-08-02T13:55:57.404Z,27.6
2017-08-02T13:56:59.944Z,27.5
2017-08-02T13:58:02.648Z,27.9
2017-08-02T13:59:05.306Z,27.7
2017-08-02T14:00:07.825Z,28.1
2017-08-02T14:01:10.316Z,27.1
2017-08-02T14:02:12.849Z,26.8
2017-08-02T14:03:15.362Z,27
2017-08-02T14:04:17.939Z,27.5
2017-08-02T14:05:21.758Z,27.7
2017-08-02T14:06:25.078Z,26.9
2017-08-02T14:07:27.704Z,27.4
2017-08-02T14:08:30.231Z,26.8
2017-08-02T14:09:32.747Z,26.7
2017-08-02T14:10:35.280Z,27.1
2017-08-02T14:11:37.749Z,27.2
2017-08-02T14:12:40.273Z,26.9
2017-08-02T14:13:42.744Z,26.9
2017-08-02T14:14:45.315Z,26.8
2017-08-02T14:15:47.857Z,26.8
2017-08-02T14:16:50.358Z,27.1
2017-08-02T14:17:52.903Z,27.1
2017-08-02T14:18:55.563Z,27.4
2017-08-02T14:19:58.037Z,27.6
2017-08-02T14:21:01.530Z,28
2017-08-02T14:23:17.352Z,28
2017-08-02T14:24:20.708Z,28.2
2017-08-02T14:25:23.949Z,28.1
2017-08-02T14:26:26.589Z,27.8
2017-08-02T14:27:29.216Z,28.1
2017-08-02T14:28:31.867Z,27.5
2017-08-02T14:29:34.555Z,27.9
2017-08-02T14:30:37.085Z,28
2017-08-02T14:31:39.601Z,28.3
2017-08-02T14:33:50.283Z,27.8
2017-08-02T14:34:52.897Z,27.7
2017-08-02T14:35:55.615Z,27.9
2017-08-02T14:36:58.236Z,27.8
2017-08-02T14:38:00.712Z,27.9
2017-08-02T14:39:03.354Z,27.7
2017-08-02T14:40:08.271Z,27.6
2017-08-02T14:41:11.021Z,27.5
2017-08-02T14:42:16.844Z,27.5
2017-08-02T14:43:20.402Z,27.4
2017-08-02T14:44:23.117Z,27.4
2017-08-02T14:45:25.766Z,27.2
2017-08-02T14:46:28.316Z,27.2
2017-08-02T14:47:30.836Z,27.7
2017-08-02T14:48:33.259Z,27.4
2017-08-02T14:49:35.832Z,27.3
2017-08-02T14:50:38.674Z,27.8
2017-08-02T14:51:41.201Z,27.7
2017-08-02T14:52:43.877Z,27.8
2017-08-02T14:53:46.527Z,27.8
2017-08-02T14:54:49.046Z,27.7
2017-08-02T14:55:51.566Z,27.6
2017-08-02T14:56:54.149Z,27.5
2017-08-02T14:57:56.692Z,27.4
2017-08-02T14:58:59.150Z,27.1
2017-08-02T15:00:01.645Z,26.9
2017-08-02T15:01:04.200Z,27.3
2017-08-02T15:02:06.939Z,27.6
2017-08-02T15:03:09.426Z,27.2
2017-08-02T15:04:11.889Z,27.2
2017-08-02T15:05:14.509Z,27.3
2017-08-02T15:06:17.146Z,26.9
2017-08-02T15:07:19.613Z,26.8
2017-08-02T15:08:22.253Z,26.7
2017-08-02T15:09:24.815Z,26.8
2017-08-02T15:10:27.448Z,26.9
2017-08-02T15:11:30.273Z,26.9
2017-08-02T15:12:32.922Z,26.3
2017-08-02T15:13:35.469Z,26.6
2017-08-02T15:14:38.149Z,26.7
2017-08-02T15:15:40.660Z,26.6
2017-08-02T15:16:43.276Z,26.6
2017-08-02T15:17:45.910Z,26.1
2017-08-02T15:18:48.632Z,26
2017-08-02T15:19:51.144Z,26.3
2017-08-02T15:20:53.718Z,26.1
2017-08-02T15:21:56.439Z,26
2017-08-02T15:22:59.048Z,26.1
2017-08-02T15:24:01.653Z,26.4
2017-08-02T15:25:05.779Z,26.3
2017-08-02T15:26:08.334Z,26.4
2017-08-02T15:27:11.012Z,26.1
2017-08-02T15:29:20.907Z,25.6
2017-08-02T15:30:23.493Z,26.1
2017-08-02T15:31:26.718Z,26.4
2017-08-02T15:32:29.675Z,26.3
2017-08-02T15:33:32.226Z,26
2017-08-02T15:34:34.832Z,26.5
2017-08-02T15:35:37.329Z,26.3
2017-08-02T15:36:40.389Z,26.2
2017-08-02T15:37:43.261Z,26.2
2017-08-02T15:38:46.841Z,26.4
2017-08-02T15:39:49.581Z,26
2017-08-02T15:40:51.991Z,26.7
2017-08-02T15:41:54.642Z,26.8
2017-08-02T15:42:57.192Z,26.9
2017-08-02T15:43:59.765Z,26.6
2017-08-02T15:45:02.556Z,26.3
2017-08-02T15:46:05.531Z,26.5
2017-08-02T15:47:08.167Z,26.2
2017-08-02T15:48:10.762Z,26.4
2017-08-02T15:49:13.287Z,26.6
2017-08-02T15:50:16.202Z,26.7
2017-08-02T15:51:18.794Z,26.8
2017-08-02T15:52:21.349Z,26.9
2017-08-02T15:53:23.890Z,26.8
2017-08-02T15:54:26.529Z,26.7
2017-08-02T15:55:29.093Z,26.7
2017-08-02T15:56:31.622Z,26.6
2017-08-02T15:57:34.226Z,26.5
2017-08-02T15:58:45.684Z,26.7
2017-08-02T15:59:48.237Z,26.5
2017-08-02T16:00:50.753Z,26.2
2017-08-02T16:01:53.256Z,26.4
2017-08-02T16:02:55.855Z,26.2
2017-08-02T16:03:58.570Z,26.3
2017-08-02T16:06:11.006Z,26.2
2017-08-02T16:07:13.563Z,26.2
2017-08-02T16:08:16.010Z,26.2
2017-08-02T16:09:18.673Z,26.1
2017-08-02T16:10:21.187Z,25.9
2017-08-02T16:11:28.857Z,25.8
2017-08-02T16:12:31.458Z,25.8
2017-08-02T16:13:34.085Z,26
2017-08-02T16:14:36.733Z,26
2017-08-02T16:15:39.386Z,26.1
2017-08-02T16:16:42.290Z,26.1
2017-08-02T16:17:44.778Z,26.1
2017-08-02T16:18:47.369Z,26
2017-08-02T16:19:49.862Z,26
2017-08-02T16:20:52.525Z,26
2017-08-02T16:21:55.089Z,26.1
2017-08-02T16:22:57.556Z,26
2017-08-02T16:24:00.017Z,26.2
2017-08-02T16:25:02.830Z,26.1
2017-08-02T16:26:05.452Z,26.1
2017-08-02T16:27:07.980Z,25.8
2017-08-02T16:28:10.419Z,26.1
2017-08-02T16:29:12.870Z,26
2017-08-02T16:30:15.553Z,25.9
2017-08-02T16:31:18.102Z,25.8
2017-08-02T16:32:20.655Z,25.8
2017-08-02T16:33:23.275Z,25.9
2017-08-02T16:34:25.809Z,25.9
2017-08-02T16:35:28.396Z,25.7
2017-08-02T16:36:30.887Z,25.7
2017-08-02T16:37:33.449Z,25.7
2017-08-02T16:38:35.959Z,25.4
2017-08-02T16:39:38.469Z,25.7
2017-08-02T16:40:41.219Z,25.6
2017-08-02T16:41:43.818Z,25.6
2017-08-02T16:42:46.326Z,25.6
2017-08-02T16:43:48.758Z,25.5
2017-08-02T16:44:51.239Z,25.5
2017-08-02T16:45:53.765Z,25.5
2017-08-02T16:46:56.466Z,25.4
2017-08-02T16:47:59.007Z,25.1
2017-08-02T16:49:01.454Z,25.1
2017-08-02T16:50:03.995Z,25.2
2017-08-02T16:51:06.651Z,25.1
2017-08-02T16:52:09.285Z,24.9
2017-08-02T16:53:11.717Z,25.2
2017-08-02T16:54:14.206Z,25.3
2017-08-02T16:55:16.867Z,25.2
2017-08-02T16:57:36.156Z,25.2
2017-08-02T16:58:38.829Z,25
2017-08-02T16:59:41.441Z,25
2017-08-02T17:00:43.896Z,24.7
2017-08-02T17:01:46.487Z,24.7
2017-08-02T17:02:49.094Z,24.9
2017-08-02T17:03:51.638Z,25.1
2017-08-02T17:04:54.227Z,24.8
2017-08-02T17:05:56.927Z,25.2
2017-08-02T17:06:59.560Z,25
2017-08-02T17:08:02.064Z,24.7
2017-08-02T17:09:04.701Z,25.2
2017-08-02T17:10:07.604Z,25.3
2017-08-02T17:11:10.327Z,25.4
2017-08-02T17:12:12.931Z,25.3
2017-08-02T17:13:15.602Z,25.4
2017-08-02T17:14:18.223Z,25.1
2017-08-02T17:15:20.926Z,25.3
2017-08-02T17:16:23.534Z,25.1
2017-08-02T17:17:26.247Z,25
2017-08-02T17:18:28.927Z,25
2017-08-02T17:19:31.454Z,25.2
2017-08-02T17:20:33.949Z,25.2
2017-08-02T17:21:36.502Z,25.2
2017-08-02T17:22:40.048Z,24.9
2017-08-02T17:23:42.517Z,25.2
2017-08-02T17:24:44.940Z,25.2
2017-08-02T17:25:47.597Z,25.1
2017-08-02T17:26:50.199Z,25
2017-08-02T17:27:52.798Z,25.1
2017-08-02T17:28:55.355Z,25.2
2017-08-02T17:29:57.932Z,25.1
2017-08-02T17:31:00.516Z,25.1
2017-08-02T17:32:03.024Z,25.1
2017-08-02T17:33:05.655Z,24.8
2017-08-02T17:34:08.919Z,25
2017-08-02T17:35:11.538Z,25.1
2017-08-02T17:36:14.063Z,25
2017-08-02T17:37:16.635Z,24.9
2017-08-02T17:38:19.153Z,25
2017-08-02T17:39:21.727Z,25.1
2017-08-02T17:40:24.239Z,25.1
2017-08-02T17:41:26.793Z,25
2017-08-02T17:42:29.335Z,25
2017-08-02T17:43:32.475Z,24.6
2017-08-02T17:44:35.129Z,24.9
2017-08-02T17:45:38.415Z,24.9
2017-08-02T17:46:40.926Z,24.8
2017-08-02T17:47:43.422Z,25
2017-08-02T17:48:45.969Z,24.8
2017-08-02T17:49:48.564Z,24.8
2017-08-02T17:50:51.042Z,24.7
2017-08-02T17:51:53.604Z,24.6
2017-08-02T17:52:56.250Z,24.6
2017-08-02T17:53:58.732Z,24.4
2017-08-02T17:55:01.224Z,24.5
2017-08-02T17:56:03.774Z,24.5
2017-08-02T17:57:06.363Z,24.5
2017-08-02T17:58:08.878Z,24.6
2017-08-02T17:59:11.689Z,24.5
2017-08-02T18:00:14.220Z,24.5
2017-08-02T18:01:16.954Z,24.4
2017-08-02T18:02:19.496Z,24.2
2017-08-02T18:03:22.137Z,24.2
2017-08-02T18:04:24.682Z,24.2
2017-08-02T18:05:27.432Z,24.3
2017-08-02T18:06:29.918Z,24.4
2017-08-02T18:07:32.492Z,24.4
2017-08-02T18:08:36.708Z,24.3
2017-08-02T18:09:39.379Z,24.3
2017-08-02T18:10:41.887Z,24.4
2017-08-02T18:11:44.410Z,24.4
2017-08-02T18:12:47.001Z,24.1
2017-08-02T18:13:49.496Z,24.1
2017-08-02T18:14:52.003Z,24.2
2017-08-02T18:15:54.610Z,24.1
2017-08-02T18:16:57.343Z,24.1
2017-08-02T18:17:59.842Z,24.1
2017-08-02T18:19:02.352Z,23.9
2017-08-02T18:20:04.991Z,23.9
2017-08-02T18:21:07.772Z,23.8
2017-08-02T18:22:10.312Z,23.5
2017-08-02T18:23:12.768Z,23.8
2017-08-02T18:24:15.252Z,23.9
2017-08-02T18:25:17.782Z,23.9
2017-08-02T18:26:20.259Z,23.8
2017-08-02T18:27:22.663Z,23.7
2017-08-02T18:28:25.105Z,23.6
2017-08-02T18:29:27.771Z,23.7
2017-08-02T18:30:30.325Z,23.8
2017-08-02T18:31:33.481Z,23.6
2017-08-02T18:32:36.144Z,23.5
2017-08-02T18:33:38.642Z,23.4
2017-08-02T18:34:41.116Z,23.3
2017-08-02T18:35:44.252Z,23.3
2017-08-02T18:36:46.996Z,23.4
2017-08-02T18:37:49.764Z,23.2
2017-08-02T18:38:52.282Z,23
2017-08-02T18:39:54.745Z,22.9
2017-08-02T18:40:57.593Z,23.2
2017-08-02T18:42:00.256Z,22.9
2017-08-02T18:43:02.774Z,22.7
2017-08-02T18:44:05.269Z,23
2017-08-02T18:45:07.768Z,23.2
2017-08-02T18:46:10.321Z,23.2
2017-08-02T18:47:12.775Z,23
2017-08-02T18:48:15.236Z,23.1
2017-08-02T18:49:17.720Z,23.3
2017-08-02T18:50:20.242Z,23.4
2017-08-02T18:51:22.807Z,23.2
2017-08-02T18:52:25.409Z,23.2
2017-08-02T18:53:28.020Z,23
2017-08-02T18:54:30.562Z,22.9
2017-08-02T18:55:33.107Z,22.8
2017-08-02T18:56:35.978Z,22.6
2017-08-02T18:57:38.423Z,22.3
2017-08-02T18:58:40.880Z,22.7
2017-08-02T18:59:43.443Z,22.8
2017-08-02T19:00:46.024Z,22.7
2017-08-02T19:01:48.615Z,22.5
2017-08-02T19:02:51.178Z,22.5
2017-08-02T19:03:53.691Z,22.6
2017-08-02T19:04:56.277Z,22.8
2017-08-02T19:05:58.817Z,22.7
2017-08-02T19:07:01.362Z,22.8
2017-08-02T19:08:08.896Z,22.9
2017-08-02T19:09:11.371Z,22.9
2017-08-02T19:10:13.890Z,22.8
2017-08-02T19:11:16.455Z,22.8
2017-08-02T19:12:19.089Z,22.9
2017-08-02T19:13:21.665Z,22.8
2017-08-02T19:14:24.284Z,22.6
2017-08-02T19:15:26.772Z,22.6
2017-08-02T19:16:29.224Z,22.5
2017-08-02T19:17:31.868Z,22.5
2017-08-02T19:18:34.455Z,22.7
2017-08-02T19:19:37.034Z,22.7
2017-08-02T19:20:39.509Z,22.6
2017-08-02T19:21:42.131Z,22.4
2017-08-02T19:22:44.660Z,21.9
2017-08-02T19:23:47.261Z,22.2
2017-08-02T19:24:49.741Z,21.9
2017-08-02T19:25:52.165Z,21.9
2017-08-02T19:26:54.623Z,22.1
2017-08-02T19:27:57.290Z,22
2017-08-02T19:28:59.790Z,21.9
2017-08-02T19:30:02.330Z,22.1
2017-08-02T19:31:04.788Z,22
2017-08-02T19:32:07.379Z,22
2017-08-02T19:33:09.983Z,22.1
2017-08-02T19:34:12.479Z,22.1
2017-08-02T19:35:15.034Z,21.9
2017-08-02T19:36:17.665Z,21.9
2017-08-02T19:37:20.185Z,22.1
2017-08-02T19:39:30.853Z,21.9
2017-08-02T19:40:34.223Z,22.4
2017-08-02T19:41:36.881Z,22.4
2017-08-02T19:42:39.367Z,22.3
2017-08-02T19:43:41.834Z,22.2
2017-08-02T19:44:44.330Z,21.8
2017-08-02T19:45:46.983Z,22.1
2017-08-02T19:46:49.440Z,21.7
2017-08-02T19:47:52.012Z,22.1
2017-08-02T19:48:54.480Z,22.2
2017-08-02T19:49:57.073Z,22.2
2017-08-02T19:50:59.625Z,22
2017-08-02T19:52:02.061Z,22.1
2017-08-02T19:53:04.556Z,22.2
2017-08-02T19:54:07.161Z,21.9
2017-08-02T19:55:09.667Z,21.7
2017-08-02T19:56:12.121Z,21.7
2017-08-02T19:57:14.566Z,21.7
2017-08-02T19:58:17.162Z,21.7
2017-08-02T19:59:24.067Z,21.8
2017-08-02T20:00:26.849Z,21.8
2017-08-02T20:01:29.325Z,21.8
2017-08-02T20:02:31.803Z,21.9
2017-08-02T20:03:34.298Z,21.7
2017-08-02T20:04:36.900Z,21.4
2017-08-02T20:05:39.456Z,21.9
2017-08-02T20:06:41.846Z,22
2017-08-02T20:07:44.272Z,21.6
2017-08-02T20:08:46.766Z,21.7
2017-08-02T20:09:49.328Z,21.8
2017-08-02T20:10:51.839Z,21.9
2017-08-02T20:11:54.301Z,21.8
2017-08-02T20:12:56.828Z,21.8
2017-08-02T20:13:59.292Z,21.6
2017-08-02T20:15:05.118Z,21.7
2017-08-02T20:16:07.817Z,21.7
2017-08-02T20:17:10.269Z,21.6
2017-08-02T20:18:12.808Z,21.8
2017-08-02T20:19:15.296Z,21.7
2017-08-02T20:20:17.892Z,21.6
2017-08-02T20:21:20.357Z,21.7
2017-08-02T20:22:22.846Z,21.7
2017-08-02T20:23:25.321Z,21.7
2017-08-02T20:24:27.861Z,21.6
2017-08-02T20:25:30.384Z,21.6
2017-08-02T20:26:32.854Z,21.6
2017-08-02T20:27:35.355Z,21.8
2017-08-02T20:28:37.893Z,21.9
2017-08-02T20:29:40.309Z,21.9
2017-08-02T20:30:42.772Z,21.8
2017-08-02T20:31:45.225Z,21.7
2017-08-02T20:32:47.831Z,21.6
2017-08-02T20:33:50.274Z,21.6
2017-08-02T20:34:52.877Z,21.8
2017-08-02T20:35:56.229Z,21.5
2017-08-02T20:36:59.251Z,21.2
2017-08-02T20:38:01.699Z,20.9
2017-08-02T20:39:04.200Z,20.8
2017-08-02T20:40:06.732Z,20.9
2017-08-02T20:41:09.262Z,21
2017-08-02T20:42:11.664Z,21
2017-08-02T20:43:14.130Z,21.2
2017-08-02T20:44:16.660Z,21.3
2017-08-02T20:45:19.118Z,21.4
2017-08-02T20:46:21.520Z,21.2
2017-08-02T20:47:24.008Z,21.4
2017-08-02T20:48:26.476Z,21.3
2017-08-02T20:49:28.924Z,21.4
2017-08-02T20:50:31.420Z,21.2
2017-08-02T20:51:33.888Z,21.1
2017-08-02T20:52:36.331Z,21.1
2017-08-02T20:53:38.787Z,21
2017-08-02T20:54:41.270Z,21
2017-08-02T20:55:43.739Z,21.2
2017-08-02T20:56:46.314Z,21
2017-08-02T20:57:48.762Z,21.5
2017-08-02T20:58:51.164Z,21.5
2017-08-02T20:59:53.589Z,21.4
2017-08-02T21:00:56.000Z,21.6
2017-08-02T21:02:01.378Z,21.5
2017-08-02T21:03:04.275Z,21.5
2017-08-02T21:04:06.686Z,21.6
2017-08-02T21:05:09.150Z,21.6
2017-08-02T21:06:11.569Z,21.1
2017-08-02T21:07:14.036Z,21.8
2017-08-02T21:08:16.521Z,21.7
2017-08-02T21:09:19.021Z,21.8
2017-08-02T21:10:21.560Z,21.9
2017-08-02T21:11:23.974Z,21.8
2017-08-02T21:12:26.530Z,21.8
2017-08-02T21:13:28.994Z,21.4
2017-08-02T21:14:31.384Z,21.9
2017-08-02T21:15:33.829Z,22
2017-08-02T21:16:36.386Z,22
2017-08-02T21:17:38.789Z,21.9
2017-08-02T21:18:41.187Z,21.9
2017-08-02T21:19:43.634Z,21.5
2017-08-02T21:20:46.119Z,21.6
2017-08-02T21:21:48.557Z,21.7
2017-08-02T21:22:51.232Z,21.7
2017-08-02T21:23:53.703Z,21.7
2017-08-02T21:24:56.160Z,21.8
2017-08-02T21:25:58.658Z,21.8
2017-08-02T21:27:01.163Z,21.8
2017-08-02T21:28:03.594Z,21.7
2017-08-02T21:29:06.013Z,21.8
2017-08-02T21:30:08.416Z,21.7
2017-08-02T21:31:10.904Z,21.8
2017-08-02T21:32:13.345Z,21.8
2017-08-02T21:33:15.813Z,21.7
2017-08-02T21:34:27.209Z,21.6
2017-08-02T21:35:29.646Z,21.8
2017-08-02T21:36:31.999Z,21.9
2017-08-02T21:37:34.473Z,21.8
2017-08-02T21:38:37.034Z,22
2017-08-02T21:39:39.492Z,21.9
2017-08-02T21:40:41.938Z,21.8
2017-08-02T21:41:44.339Z,22
2017-08-02T21:42:46.903Z,22
2017-08-02T21:43:49.296Z,22.1
2017-08-02T21:44:51.711Z,22.2
2017-08-02T21:45:54.088Z,22.2
2017-08-02T21:46:56.520Z,22.1
2017-08-02T21:47:58.900Z,22
2017-08-02T21:49:01.348Z,22
2017-08-02T21:50:03.737Z,21.6
2017-08-02T21:51:06.162Z,22.1
2017-08-02T21:52:08.567Z,22.1
2017-08-02T21:53:10.987Z,22.1
2017-08-02T21:54:13.413Z,22.1
2017-08-02T21:55:15.866Z,22.1
2017-08-02T21:56:18.412Z,21.8
2017-08-02T21:57:20.884Z,21.8
2017-08-02T21:58:23.223Z,21.6
2017-08-02T21:59:25.652Z,21.8
2017-08-02T22:00:28.293Z,21.8
2017-08-02T22:01:30.699Z,21.9
2017-08-02T22:02:33.160Z,21.9
2017-08-02T22:03:35.531Z,22
2017-08-02T22:04:37.951Z,21.9
2017-08-02T22:05:40.404Z,21.9
2017-08-02T22:06:42.817Z,21.8
2017-08-02T22:07:45.229Z,21.9
2017-08-02T22:08:47.696Z,21.8
2017-08-02T22:09:50.139Z,21.7
2017-08-02T22:10:52.614Z,21.8
2017-08-02T22:11:55.144Z,21.8
2017-08-02T22:12:57.650Z,21.8
2017-08-02T22:14:00.046Z,21.7
2017-08-02T22:15:02.557Z,21.6
2017-08-02T22:16:04.975Z,21.4
2017-08-02T22:17:07.424Z,21.3
2017-08-02T22:18:09.804Z,21.5
2017-08-02T22:19:12.183Z,21.6
2017-08-02T22:20:14.616Z,21.6
2017-08-02T22:21:17.007Z,21.6
2017-08-02T22:22:19.370Z,21.5
2017-08-02T22:23:21.759Z,21.5
2017-08-02T22:24:24.311Z,21.5
2017-08-02T22:25:26.826Z,21.3
2017-08-02T22:26:29.241Z,21.4
2017-08-02T22:27:31.645Z,21.4
2017-08-02T22:28:34.072Z,21.3
2017-08-02T22:29:36.516Z,21.3
2017-08-02T22:30:38.859Z,21.3
2017-08-02T22:31:41.211Z,21.3
2017-08-02T22:32:43.604Z,21.2
2017-08-02T22:33:45.966Z,21.3
2017-08-02T22:34:48.354Z,21.2
2017-08-02T22:35:50.711Z,21.2
2017-08-02T22:36:53.734Z,21.3
2017-08-02T22:37:56.097Z,21
2017-08-02T22:38:59.109Z,20.9
2017-08-02T22:40:01.488Z,21.1
2017-08-02T22:41:04.521Z,21.1
2017-08-02T22:42:06.997Z,21
2017-08-02T22:43:09.377Z,21
2017-08-02T22:44:11.745Z,21.1
2017-08-02T22:45:14.170Z,21
2017-08-02T22:46:16.579Z,21
2017-08-02T22:47:18.987Z,21.1
2017-08-02T22:48:21.405Z,21.2
2017-08-02T22:49:23.805Z,21.2
2017-08-02T22:50:26.193Z,21.2
2017-08-02T22:51:28.645Z,21.2
2017-08-02T22:52:31.000Z,20.9
2017-08-02T22:53:33.379Z,20.7
2017-08-02T22:54:35.795Z,20.7
2017-08-02T22:55:38.217Z,21
2017-08-02T22:56:40.670Z,20.9
2017-08-02T22:57:43.188Z,20.9
2017-08-02T22:58:46.084Z,21
2017-08-02T22:59:48.469Z,20.9
2017-08-02T23:00:50.846Z,21
2017-08-02T23:01:53.198Z,21
2017-08-02T23:02:55.657Z,21.1
2017-08-02T23:03:57.986Z,21.1
2017-08-02T23:05:00.380Z,21
2017-08-02T23:06:02.744Z,21.1
2017-08-02T23:07:05.148Z,21.1
2017-08-02T23:08:07.491Z,21.1
2017-08-02T23:09:09.877Z,21
2017-08-02T23:10:12.274Z,20.9
2017-08-02T23:11:14.700Z,21
2017-08-02T23:12:17.187Z,20.9
2017-08-02T23:13:19.548Z,20.9
2017-08-02T23:14:21.912Z,20.8
2017-08-02T23:15:24.262Z,20.9
2017-08-02T23:16:26.703Z,20.9
2017-08-02T23:17:29.059Z,20.8
2017-08-02T23:18:31.424Z,20.8
2017-08-02T23:19:33.761Z,20.6
2017-08-02T23:20:36.149Z,20.5
2017-08-02T23:21:38.588Z,20.6
2017-08-02T23:22:41.001Z,20.4
2017-08-02T23:23:43.366Z,20.5
2017-08-02T23:24:45.719Z,20.1
2017-08-02T23:25:48.121Z,19.8
2017-08-02T23:26:50.514Z,20
2017-08-02T23:27:52.928Z,20.2
2017-08-02T23:28:55.281Z,20.3
2017-08-02T23:29:57.711Z,20.3
2017-08-02T23:31:00.078Z,20.4
2017-08-02T23:32:02.545Z,20.5
2017-08-02T23:33:04.915Z,20.6
2017-08-02T23:34:07.296Z,20.7
2017-08-02T23:35:09.651Z,20.5
2017-08-02T23:36:12.042Z,20.4
2017-08-02T23:37:14.417Z,20.5
2017-08-02T23:38:16.833Z,20.6
2017-08-02T23:39:19.168Z,20.4
2017-08-02T23:40:21.471Z,19.8
2017-08-02T23:41:23.842Z,20.1
2017-08-02T23:42:26.272Z,20.4
2017-08-02T23:43:28.705Z,20.5
2017-08-02T23:44:31.105Z,20.5
2017-08-02T23:45:33.436Z,19.5
2017-08-02T23:46:35.786Z,19.2
2017-08-02T23:47:38.147Z,19.2
2017-08-02T23:48:40.548Z,19.4
2017-08-02T23:49:42.878Z,19.5
2017-08-02T23:50:45.227Z,19.7
2017-08-02T23:51:47.626Z,19.7
2017-08-02T23:52:49.954Z,19.7
2017-08-02T23:53:52.350Z,19.8
2017-08-02T23:54:54.693Z,19.7
2017-08-02T23:55:57.069Z,19.9
2017-08-02T23:56:59.505Z,19.6
2017-08-02T23:58:01.975Z,19.7
2017-08-02T23:59:04.323Z,19.8
